sensor_id;sensor_type;location;lat;lon;timestamp;pressure;altitude;pressure_sealevel;temperature;humidity
7109;BME280;29079;41.930;25.558;2023-04-09T00:01:12;100007.66;;;7.86;90.98
7109;BME280;29079;41.930;25.558;2023-04-09T00:03:46;100008.47;;;7.99;90.00
7109;BME280;29079;41.930;25.558;2023-04-09T00:06:19;100013.75;;;8.25;87.09
7109;BME280;29079;41.930;25.558;2023-04-09T00:08:52;100012.22;;;7.58;90.92
7109;BME280;29079;41.930;25.558;2023-04-09T00:11:25;100012.00;;;7.74;90.90
7109;BME280;29079;41.930;25.558;2023-04-09T00:14:00;100016.97;;;7.40;91.23
7109;BME280;29079;41.930;25.558;2023-04-09T00:16:34;100007.31;;;7.52;91.93
7109;BME280;29079;41.930;25.558;2023-04-09T00:19:07;100013.38;;;7.54;92.23
7109;BME280;29079;41.930;25.558;2023-04-09T00:21:40;100007.53;;;7.75;92.76
7109;BME280;29079;41.930;25.558;2023-04-09T00:24:14;100015.72;;;7.72;89.73
7109;BME280;29079;41.930;25.558;2023-04-09T00:26:47;100015.97;;;6.88;94.15
7109;BME280;29079;41.930;25.558;2023-04-09T00:29:21;100009.88;;;7.41;92.50
7109;BME280;29079;41.930;25.558;2023-04-09T00:31:54;100011.25;;;7.72;90.02
7109;BME280;29079;41.930;25.558;2023-04-09T00:34:28;100016.94;;;7.14;91.90
7109;BME280;29079;41.930;25.558;2023-04-09T00:37:01;100019.31;;;6.92;93.97
7109;BME280;29079;41.930;25.558;2023-04-09T00:39:34;100008.41;;;7.49;94.50
7109;BME280;29079;41.930;25.558;2023-04-09T00:42:07;100009.78;;;7.55;93.32
7109;BME280;29079;41.930;25.558;2023-04-09T00:44:41;100009.84;;;7.54;93.23
7109;BME280;29079;41.930;25.558;2023-04-09T00:47:14;100010.63;;;7.69;93.15
7109;BME280;29079;41.930;25.558;2023-04-09T00:49:48;100009.28;;;7.23;94.47
7109;BME280;29079;41.930;25.558;2023-04-09T00:52:21;100010.41;;;7.84;92.22
7109;BME280;29079;41.930;25.558;2023-04-09T00:54:54;100017.03;;;8.29;90.47
7109;BME280;29079;41.930;25.558;2023-04-09T00:57:28;100015.41;;;7.76;90.01
7109;BME280;29079;41.930;25.558;2023-04-09T01:00:04;100012.19;;;7.84;91.21
7109;BME280;29079;41.930;25.558;2023-04-09T01:02:38;100016.81;;;8.32;89.48
7109;BME280;29079;41.930;25.558;2023-04-09T01:05:12;100013.31;;;8.44;88.09
7109;BME280;29079;41.930;25.558;2023-04-09T01:07:52;100016.16;;;7.65;90.26
7109;BME280;29079;41.930;25.558;2023-04-09T01:10:27;100013.16;;;7.04;93.69
7109;BME280;29079;41.930;25.558;2023-04-09T01:13:06;100022.69;;;6.94;93.20
7109;BME280;29079;41.930;25.558;2023-04-09T01:15:43;100023.28;;;7.12;92.52
7109;BME280;29079;41.930;25.558;2023-04-09T01:18:21;100015.59;;;6.94;94.20
7109;BME280;29079;41.930;25.558;2023-04-09T01:20:56;100011.16;;;7.48;95.08
7109;BME280;29079;41.930;25.558;2023-04-09T01:23:32;100013.44;;;6.87;93.86
7109;BME280;29079;41.930;25.558;2023-04-09T01:26:09;100023.38;;;6.56;95.48
7109;BME280;29079;41.930;25.558;2023-04-09T01:28:52;100025.38;;;6.67;96.04
7109;BME280;29079;41.930;25.558;2023-04-09T01:31:27;100017.47;;;7.20;94.31
7109;BME280;29079;41.930;25.558;2023-04-09T01:34:01;100023.03;;;7.02;95.41
7109;BME280;29079;41.930;25.558;2023-04-09T01:36:35;100020.28;;;7.82;91.66
7109;BME280;29079;41.930;25.558;2023-04-09T01:39:08;100027.16;;;7.34;91.69
7109;BME280;29079;41.930;25.558;2023-04-09T01:41:42;100038.06;;;7.29;91.13
7109;BME280;29079;41.930;25.558;2023-04-09T01:44:17;100030.47;;;7.50;89.60
7109;BME280;29079;41.930;25.558;2023-04-09T01:46:51;100032.25;;;6.69;93.39
7109;BME280;29079;41.930;25.558;2023-04-09T01:49:26;100031.66;;;6.51;95.25
7109;BME280;29079;41.930;25.558;2023-04-09T01:51:59;100029.78;;;7.21;92.77
7109;BME280;29079;41.930;25.558;2023-04-09T01:54:32;100027.56;;;6.87;93.17
7109;BME280;29079;41.930;25.558;2023-04-09T01:57:05;100026.84;;;6.43;96.07
7109;BME280;29079;41.930;25.558;2023-04-09T01:59:40;100023.34;;;6.70;94.72
7109;BME280;29079;41.930;25.558;2023-04-09T02:02:15;100028.75;;;6.69;94.75
7109;BME280;29079;41.930;25.558;2023-04-09T02:04:50;100016.94;;;7.14;94.85
7109;BME280;29079;41.930;25.558;2023-04-09T02:07:26;100024.22;;;8.02;91.62
7109;BME280;29079;41.930;25.558;2023-04-09T02:10:05;100016.91;;;7.80;90.05
7109;BME280;29079;41.930;25.558;2023-04-09T02:12:41;100022.25;;;7.14;91.44
7109;BME280;29079;41.930;25.558;2023-04-09T02:15:16;100021.97;;;6.92;93.36
7109;BME280;29079;41.930;25.558;2023-04-09T02:17:51;100032.38;;;6.95;93.75
7109;BME280;29079;41.930;25.558;2023-04-09T02:20:24;100032.69;;;6.49;96.24
7109;BME280;29079;41.930;25.558;2023-04-09T02:22:57;100027.28;;;6.50;96.57
7109;BME280;29079;41.930;25.558;2023-04-09T02:25:31;100026.88;;;7.51;93.14
7109;BME280;29079;41.930;25.558;2023-04-09T02:28:04;100028.72;;;7.10;92.23
7109;BME280;29079;41.930;25.558;2023-04-09T02:30:38;100036.09;;;6.51;92.87
7109;BME280;29079;41.930;25.558;2023-04-09T02:33:11;100035.13;;;6.52;94.61
7109;BME280;29079;41.930;25.558;2023-04-09T02:35:44;100036.03;;;6.38;92.94
7109;BME280;29079;41.930;25.558;2023-04-09T02:38:18;100036.25;;;6.20;93.58
7109;BME280;29079;41.930;25.558;2023-04-09T02:40:51;100031.66;;;5.93;95.19
7109;BME280;29079;41.930;25.558;2023-04-09T02:43:24;100026.94;;;5.84;95.41
7109;BME280;29079;41.930;25.558;2023-04-09T02:45:59;100027.88;;;5.83;95.92
7109;BME280;29079;41.930;25.558;2023-04-09T02:48:32;100030.28;;;6.02;95.43
7109;BME280;29079;41.930;25.558;2023-04-09T02:51:05;100026.06;;;5.84;96.10
7109;BME280;29079;41.930;25.558;2023-04-09T02:53:38;100028.91;;;5.95;96.19
7109;BME280;29079;41.930;25.558;2023-04-09T02:56:12;100040.66;;;6.34;94.58
7109;BME280;29079;41.930;25.558;2023-04-09T02:58:45;100035.94;;;5.96;96.76
7109;BME280;29079;41.930;25.558;2023-04-09T03:01:21;100045.34;;;6.02;97.28
7109;BME280;29079;41.930;25.558;2023-04-09T03:03:55;100044.06;;;5.93;97.53
7109;BME280;29079;41.930;25.558;2023-04-09T03:06:28;100049.00;;;6.14;96.64
7109;BME280;29079;41.930;25.558;2023-04-09T03:09:01;100039.84;;;6.05;97.82
7109;BME280;29079;41.930;25.558;2023-04-09T03:11:34;100046.56;;;6.10;97.82
7109;BME280;29079;41.930;25.558;2023-04-09T03:14:08;100040.66;;;6.34;98.15
7109;BME280;29079;41.930;25.558;2023-04-09T03:16:43;100040.91;;;6.58;97.17
7109;BME280;29079;41.930;25.558;2023-04-09T03:19:17;100049.50;;;6.62;96.03
7109;BME280;29079;41.930;25.558;2023-04-09T03:21:50;100049.31;;;6.23;98.27
7109;BME280;29079;41.930;25.558;2023-04-09T03:24:23;100051.81;;;6.54;96.87
7109;BME280;29079;41.930;25.558;2023-04-09T03:26:58;100050.16;;;6.09;98.99
7109;BME280;29079;41.930;25.558;2023-04-09T03:29:32;100061.66;;;5.80;100.00
7109;BME280;29079;41.930;25.558;2023-04-09T03:32:06;100064.31;;;5.80;100.00
7109;BME280;29079;41.930;25.558;2023-04-09T03:34:39;100066.56;;;5.71;100.00
7109;BME280;29079;41.930;25.558;2023-04-09T03:37:12;100065.03;;;5.67;100.00
7109;BME280;29079;41.930;25.558;2023-04-09T03:39:46;100068.78;;;5.63;100.00
7109;BME280;29079;41.930;25.558;2023-04-09T03:42:19;100071.16;;;5.53;100.00
7109;BME280;29079;41.930;25.558;2023-04-09T03:44:52;100064.91;;;5.54;100.00
7109;BME280;29079;41.930;25.558;2023-04-09T03:47:27;100073.84;;;5.82;100.00
7109;BME280;29079;41.930;25.558;2023-04-09T03:50:00;100068.59;;;5.52;100.00
7109;BME280;29079;41.930;25.558;2023-04-09T03:52:33;100063.88;;;5.57;100.00
7109;BME280;29079;41.930;25.558;2023-04-09T03:55:07;100067.00;;;5.49;100.00
7109;BME280;29079;41.930;25.558;2023-04-09T03:57:40;100066.22;;;5.47;100.00
7109;BME280;29079;41.930;25.558;2023-04-09T04:00:14;100065.75;;;5.40;100.00
7109;BME280;29079;41.930;25.558;2023-04-09T04:02:48;100068.56;;;5.97;100.00
7109;BME280;29079;41.930;25.558;2023-04-09T04:05:22;100072.50;;;5.61;100.00
7109;BME280;29079;41.930;25.558;2023-04-09T04:07:56;100072.66;;;6.02;100.00
7109;BME280;29079;41.930;25.558;2023-04-09T04:10:29;100068.56;;;5.97;100.00
7109;BME280;29079;41.930;25.558;2023-04-09T04:13:03;100071.63;;;5.60;100.00
7109;BME280;29079;41.930;25.558;2023-04-09T04:15:40;99983.63;;;5.12;100.00
7109;BME280;29079;41.930;25.558;2023-04-09T04:18:14;100074.69;;;5.68;100.00
7109;BME280;29079;41.930;25.558;2023-04-09T04:20:48;100071.81;;;5.57;100.00
7109;BME280;29079;41.930;25.558;2023-04-09T04:23:21;100074.41;;;5.73;100.00
7109;BME280;29079;41.930;25.558;2023-04-09T04:25:54;100073.38;;;5.75;100.00
7109;BME280;29079;41.930;25.558;2023-04-09T04:28:28;100070.91;;;5.72;100.00
7109;BME280;29079;41.930;25.558;2023-04-09T04:31:05;100069.84;;;5.75;100.00
7109;BME280;29079;41.930;25.558;2023-04-09T04:33:40;100075.97;;;5.47;100.00
7109;BME280;29079;41.930;25.558;2023-04-09T04:36:14;100067.47;;;5.56;100.00
7109;BME280;29079;41.930;25.558;2023-04-09T04:38:47;100064.81;;;5.56;100.00
7109;BME280;29079;41.930;25.558;2023-04-09T04:41:21;100065.59;;;6.17;100.00
7109;BME280;29079;41.930;25.558;2023-04-09T04:43:54;100082.66;;;5.83;100.00
7109;BME280;29079;41.930;25.558;2023-04-09T04:46:28;100075.84;;;5.79;100.00
7109;BME280;29079;41.930;25.558;2023-04-09T04:49:02;100075.13;;;6.20;100.00
7109;BME280;29079;41.930;25.558;2023-04-09T04:51:36;100072.44;;;5.77;100.00
7109;BME280;29079;41.930;25.558;2023-04-09T04:54:09;100083.47;;;6.14;100.00
7109;BME280;29079;41.930;25.558;2023-04-09T04:56:42;100084.97;;;6.18;100.00
7109;BME280;29079;41.930;25.558;2023-04-09T04:59:15;100084.78;;;6.35;100.00
7109;BME280;29079;41.930;25.558;2023-04-09T05:01:48;100092.69;;;5.92;100.00
7109;BME280;29079;41.930;25.558;2023-04-09T05:04:23;100087.81;;;6.15;100.00
7109;BME280;29079;41.930;25.558;2023-04-09T05:06:57;100085.44;;;6.39;100.00
7109;BME280;29079;41.930;25.558;2023-04-09T05:09:30;100090.09;;;6.35;100.00
7109;BME280;29079;41.930;25.558;2023-04-09T05:12:04;100092.44;;;5.66;100.00
7109;BME280;29079;41.930;25.558;2023-04-09T05:14:38;100099.84;;;6.06;100.00
7109;BME280;29079;41.930;25.558;2023-04-09T05:17:11;100091.41;;;6.14;100.00
7109;BME280;29079;41.930;25.558;2023-04-09T05:19:50;100098.03;;;6.06;100.00
7109;BME280;29079;41.930;25.558;2023-04-09T05:22:24;100092.00;;;6.04;100.00
7109;BME280;29079;41.930;25.558;2023-04-09T05:24:57;100095.78;;;6.15;100.00
7109;BME280;29079;41.930;25.558;2023-04-09T05:27:30;100101.25;;;5.97;100.00
7109;BME280;29079;41.930;25.558;2023-04-09T05:30:04;100097.47;;;6.30;100.00
7109;BME280;29079;41.930;25.558;2023-04-09T05:32:38;100101.78;;;7.16;99.17
7109;BME280;29079;41.930;25.558;2023-04-09T05:35:13;100096.66;;;6.86;98.27
7109;BME280;29079;41.930;25.558;2023-04-09T05:37:46;100104.56;;;6.15;100.00
7109;BME280;29079;41.930;25.558;2023-04-09T05:40:19;100106.84;;;6.21;100.00
7109;BME280;29079;41.930;25.558;2023-04-09T05:42:52;100104.97;;;6.38;100.00
7109;BME280;29079;41.930;25.558;2023-04-09T05:45:25;100099.63;;;6.67;100.00
7109;BME280;29079;41.930;25.558;2023-04-09T05:47:59;100093.25;;;6.69;99.75
7109;BME280;29079;41.930;25.558;2023-04-09T05:50:33;100097.06;;;6.65;100.00
7109;BME280;29079;41.930;25.558;2023-04-09T05:53:25;100099.47;;;6.41;100.00
7109;BME280;29079;41.930;25.558;2023-04-09T05:55:58;100098.88;;;6.50;100.00
7109;BME280;29079;41.930;25.558;2023-04-09T05:58:31;100105.19;;;6.62;99.24
7109;BME280;29079;41.930;25.558;2023-04-09T06:01:04;100099.56;;;6.39;100.00
7109;BME280;29079;41.930;25.558;2023-04-09T06:03:38;100100.59;;;6.51;100.00
7109;BME280;29079;41.930;25.558;2023-04-09T06:06:13;100102.13;;;6.41;100.00
7109;BME280;29079;41.930;25.558;2023-04-09T06:08:46;100095.56;;;6.47;100.00
7109;BME280;29079;41.930;25.558;2023-04-09T06:11:19;100096.91;;;6.25;100.00
7109;BME280;29079;41.930;25.558;2023-04-09T06:13:54;100104.88;;;6.25;100.00
7109;BME280;29079;41.930;25.558;2023-04-09T06:16:27;100102.88;;;6.99;100.00
7109;BME280;29079;41.930;25.558;2023-04-09T06:19:02;100108.06;;;6.59;98.86
7109;BME280;29079;41.930;25.558;2023-04-09T06:21:36;100110.34;;;6.22;100.00
7109;BME280;29079;41.930;25.558;2023-04-09T06:24:11;100111.09;;;6.38;100.00
7109;BME280;29079;41.930;25.558;2023-04-09T06:26:44;100112.50;;;7.14;97.47
7109;BME280;29079;41.930;25.558;2023-04-09T06:29:17;100113.72;;;6.82;97.53
7109;BME280;29079;41.930;25.558;2023-04-09T06:31:53;100119.63;;;6.43;99.46
7109;BME280;29079;41.930;25.558;2023-04-09T06:34:26;100122.44;;;6.40;100.00
7109;BME280;29079;41.930;25.558;2023-04-09T06:37:00;100122.44;;;6.69;99.34
7109;BME280;29079;41.930;25.558;2023-04-09T06:39:34;100124.88;;;6.72;99.39
7109;BME280;29079;41.930;25.558;2023-04-09T06:42:11;100120.00;;;6.23;100.00
7109;BME280;29079;41.930;25.558;2023-04-09T06:44:44;100119.22;;;6.06;100.00
7109;BME280;29079;41.930;25.558;2023-04-09T06:47:18;100118.47;;;6.48;100.00
7109;BME280;29079;41.930;25.558;2023-04-09T06:49:51;100117.94;;;6.42;100.00
7109;BME280;29079;41.930;25.558;2023-04-09T06:52:25;100116.78;;;6.61;99.90
7109;BME280;29079;41.930;25.558;2023-04-09T06:54:59;100116.50;;;6.66;98.37
7109;BME280;29079;41.930;25.558;2023-04-09T06:57:32;100115.91;;;6.60;98.70
7109;BME280;29079;41.930;25.558;2023-04-09T07:00:05;100111.59;;;6.45;100.00
7109;BME280;29079;41.930;25.558;2023-04-09T07:02:39;100114.94;;;6.76;99.45
7109;BME280;29079;41.930;25.558;2023-04-09T07:05:12;100110.34;;;6.65;99.69
7109;BME280;29079;41.930;25.558;2023-04-09T07:07:47;100114.75;;;7.21;96.40
7109;BME280;29079;41.930;25.558;2023-04-09T07:10:21;100116.09;;;6.72;98.47
7109;BME280;29079;41.930;25.558;2023-04-09T07:12:55;100122.09;;;6.61;98.71
7109;BME280;29079;41.930;25.558;2023-04-09T07:15:28;100107.75;;;6.63;99.63
7109;BME280;29079;41.930;25.558;2023-04-09T07:18:01;100116.38;;;6.67;99.04
7109;BME280;29079;41.930;25.558;2023-04-09T07:20:34;100113.53;;;6.70;98.55
7109;BME280;29079;41.930;25.558;2023-04-09T07:23:09;100131.22;;;6.99;97.32
7109;BME280;29079;41.930;25.558;2023-04-09T07:25:42;100129.44;;;6.85;97.79
7109;BME280;29079;41.930;25.558;2023-04-09T07:28:16;100131.34;;;7.10;94.80
7109;BME280;29079;41.930;25.558;2023-04-09T07:30:49;100125.16;;;6.82;96.76
7109;BME280;29079;41.930;25.558;2023-04-09T07:33:22;100116.38;;;6.82;97.21
7109;BME280;29079;41.930;25.558;2023-04-09T07:35:55;100120.88;;;6.94;96.53
7109;BME280;29079;41.930;25.558;2023-04-09T07:38:30;100120.31;;;7.30;94.26
7109;BME280;29079;41.930;25.558;2023-04-09T07:41:03;100119.63;;;7.27;95.19
7109;BME280;29079;41.930;25.558;2023-04-09T07:43:37;100123.03;;;7.29;93.74
7109;BME280;29079;41.930;25.558;2023-04-09T07:46:11;100117.59;;;7.58;93.55
7109;BME280;29079;41.930;25.558;2023-04-09T07:48:49;100120.53;;;7.93;91.04
7109;BME280;29079;41.930;25.558;2023-04-09T07:51:23;100128.19;;;7.45;91.80
7109;BME280;29079;41.930;25.558;2023-04-09T07:53:58;100130.19;;;7.94;90.87
7109;BME280;29079;41.930;25.558;2023-04-09T07:56:31;100123.06;;;7.82;91.21
7109;BME280;29079;41.930;25.558;2023-04-09T07:59:04;100136.34;;;7.69;90.91
7109;BME280;29079;41.930;25.558;2023-04-09T08:01:37;100124.69;;;7.97;89.33
7109;BME280;29079;41.930;25.558;2023-04-09T08:04:11;100124.38;;;8.02;89.40
7109;BME280;29079;41.930;25.558;2023-04-09T08:06:45;100132.75;;;8.09;90.13
7109;BME280;29079;41.930;25.558;2023-04-09T08:09:23;100140.44;;;8.00;89.40
7109;BME280;29079;41.930;25.558;2023-04-09T08:11:58;100141.94;;;8.56;86.82
7109;BME280;29079;41.930;25.558;2023-04-09T08:14:31;100131.19;;;8.58;86.71
7109;BME280;29079;41.930;25.558;2023-04-09T08:17:04;100143.28;;;8.87;85.06
7109;BME280;29079;41.930;25.558;2023-04-09T08:19:39;100136.81;;;8.79;85.17
7109;BME280;29079;41.930;25.558;2023-04-09T08:22:12;100136.41;;;8.46;85.68
7109;BME280;29079;41.930;25.558;2023-04-09T08:24:50;100130.03;;;8.49;85.84
7109;BME280;29079;41.930;25.558;2023-04-09T08:27:24;100049.16;;;8.51;85.27
7109;BME280;29079;41.930;25.558;2023-04-09T08:29:57;100129.94;;;9.00;83.95
7109;BME280;29079;41.930;25.558;2023-04-09T08:32:30;100131.78;;;9.59;82.25
7109;BME280;29079;41.930;25.558;2023-04-09T08:35:06;100137.88;;;9.73;80.38
7109;BME280;29079;41.930;25.558;2023-04-09T08:37:39;100133.78;;;9.45;79.46
7109;BME280;29079;41.930;25.558;2023-04-09T08:40:14;100136.56;;;9.43;80.48
7109;BME280;29079;41.930;25.558;2023-04-09T08:42:49;100124.38;;;9.99;80.03
7109;BME280;29079;41.930;25.558;2023-04-09T08:45:24;100126.78;;;9.79;79.10
7109;BME280;29079;41.930;25.558;2023-04-09T08:47:57;100124.66;;;9.60;80.28
7109;BME280;29079;41.930;25.558;2023-04-09T08:50:31;100120.69;;;9.77;77.83
7109;BME280;29079;41.930;25.558;2023-04-09T08:53:05;100114.31;;;9.55;79.36
7109;BME280;29079;41.930;25.558;2023-04-09T08:55:43;100121.44;;;9.79;77.67
7109;BME280;29079;41.930;25.558;2023-04-09T08:58:16;100110.56;;;9.93;77.55
7109;BME280;29079;41.930;25.558;2023-04-09T09:00:50;100108.66;;;10.18;76.75
7109;BME280;29079;41.930;25.558;2023-04-09T09:03:23;100114.22;;;10.04;77.06
7109;BME280;29079;41.930;25.558;2023-04-09T09:05:57;100113.56;;;9.78;80.10
7109;BME280;29079;41.930;25.558;2023-04-09T09:08:30;100109.13;;;10.12;78.98
7109;BME280;29079;41.930;25.558;2023-04-09T09:11:06;100104.75;;;9.53;80.59
7109;BME280;29079;41.930;25.558;2023-04-09T09:13:40;100098.66;;;9.75;80.25
7109;BME280;29079;41.930;25.558;2023-04-09T09:16:13;100093.59;;;9.48;81.50
7109;BME280;29079;41.930;25.558;2023-04-09T09:18:47;100102.50;;;9.71;80.15
7109;BME280;29079;41.930;25.558;2023-04-09T09:21:22;100094.22;;;9.98;79.93
7109;BME280;29079;41.930;25.558;2023-04-09T09:23:55;100093.63;;;10.17;78.57
7109;BME280;29079;41.930;25.558;2023-04-09T09:26:30;100098.69;;;9.86;78.18
7109;BME280;29079;41.930;25.558;2023-04-09T09:29:03;100098.72;;;9.98;78.33
7109;BME280;29079;41.930;25.558;2023-04-09T09:31:44;100105.03;;;10.08;77.41
7109;BME280;29079;41.930;25.558;2023-04-09T09:34:18;100098.03;;;9.83;77.93
7109;BME280;29079;41.930;25.558;2023-04-09T09:36:52;100097.47;;;9.90;77.65
7109;BME280;29079;41.930;25.558;2023-04-09T09:39:25;100089.13;;;10.18;77.22
7109;BME280;29079;41.930;25.558;2023-04-09T09:42:17;100099.06;;;10.04;76.29
7109;BME280;29079;41.930;25.558;2023-04-09T09:44:50;100098.47;;;10.01;75.29
7109;BME280;29079;41.930;25.558;2023-04-09T09:47:23;100092.66;;;10.07;75.09
7109;BME280;29079;41.930;25.558;2023-04-09T09:49:58;100087.78;;;10.12;74.60
7109;BME280;29079;41.930;25.558;2023-04-09T09:52:32;100077.88;;;10.37;73.73
7109;BME280;29079;41.930;25.558;2023-04-09T09:55:06;100078.13;;;10.34;72.96
7109;BME280;29079;41.930;25.558;2023-04-09T09:57:41;100069.03;;;10.36;73.03
7109;BME280;29079;41.930;25.558;2023-04-09T10:00:16;100062.19;;;10.89;74.40
7109;BME280;29079;41.930;25.558;2023-04-09T10:02:52;100065.53;;;10.47;72.52
7109;BME280;29079;41.930;25.558;2023-04-09T10:05:26;100072.09;;;10.54;72.77
7109;BME280;29079;41.930;25.558;2023-04-09T10:08:00;100060.28;;;10.68;72.81
7109;BME280;29079;41.930;25.558;2023-04-09T10:10:35;100057.47;;;11.13;72.17
7109;BME280;29079;41.930;25.558;2023-04-09T10:13:13;100054.38;;;11.29;72.27
7109;BME280;29079;41.930;25.558;2023-04-09T10:15:48;100054.59;;;11.38;71.35
7109;BME280;29079;41.930;25.558;2023-04-09T10:18:22;100048.59;;;11.24;69.39
7109;BME280;29079;41.930;25.558;2023-04-09T10:20:55;100050.34;;;11.14;68.96
7109;BME280;29079;41.930;25.558;2023-04-09T10:23:31;100049.13;;;11.39;69.81
7109;BME280;29079;41.930;25.558;2023-04-09T10:26:05;100047.28;;;11.40;68.99
7109;BME280;29079;41.930;25.558;2023-04-09T10:28:40;100039.69;;;11.56;67.59
7109;BME280;29079;41.930;25.558;2023-04-09T10:31:13;100044.56;;;11.51;66.67
7109;BME280;29079;41.930;25.558;2023-04-09T10:33:46;100037.66;;;11.48;67.95
7109;BME280;29079;41.930;25.558;2023-04-09T10:36:22;100038.97;;;11.54;68.14
7109;BME280;29079;41.930;25.558;2023-04-09T10:38:58;100033.41;;;11.88;66.41
7109;BME280;29079;41.930;25.558;2023-04-09T10:41:32;100028.22;;;12.17;62.86
7109;BME280;29079;41.930;25.558;2023-04-09T10:44:07;100027.34;;;12.07;62.27
7109;BME280;29079;41.930;25.558;2023-04-09T10:46:51;100018.41;;;12.28;62.21
7109;BME280;29079;41.930;25.558;2023-04-09T10:49:25;100015.00;;;12.16;61.46
7109;BME280;29079;41.930;25.558;2023-04-09T10:52:00;100012.22;;;12.27;61.50
7109;BME280;29079;41.930;25.558;2023-04-09T10:54:40;100009.78;;;12.24;61.85
7109;BME280;29079;41.930;25.558;2023-04-09T10:57:20;99996.81;;;12.19;63.34
7109;BME280;29079;41.930;25.558;2023-04-09T10:59:54;99990.69;;;12.39;61.45
7109;BME280;29079;41.930;25.558;2023-04-09T11:02:36;99991.56;;;12.49;60.15
7109;BME280;29079;41.930;25.558;2023-04-09T11:05:18;99993.97;;;12.52;60.55
7109;BME280;29079;41.930;25.558;2023-04-09T11:07:52;99985.97;;;12.21;59.98
7109;BME280;29079;41.930;25.558;2023-04-09T11:10:26;99979.16;;;12.38;60.61
7109;BME280;29079;41.930;25.558;2023-04-09T11:13:00;99975.09;;;12.63;61.21
7109;BME280;29079;41.930;25.558;2023-04-09T11:15:36;99983.97;;;12.54;58.54
7109;BME280;29079;41.930;25.558;2023-04-09T11:18:13;99986.69;;;12.64;59.60
7109;BME280;29079;41.930;25.558;2023-04-09T11:20:46;99974.25;;;12.63;59.21
7109;BME280;29079;41.930;25.558;2023-04-09T11:23:19;99981.47;;;12.62;59.98
7109;BME280;29079;41.930;25.558;2023-04-09T11:25:52;99956.38;;;12.83;58.91
7109;BME280;29079;41.930;25.558;2023-04-09T11:28:26;99957.06;;;12.65;59.77
7109;BME280;29079;41.930;25.558;2023-04-09T11:31:03;99960.44;;;12.67;60.00
7109;BME280;29079;41.930;25.558;2023-04-09T11:33:36;99960.31;;;12.79;58.58
7109;BME280;29079;41.930;25.558;2023-04-09T11:36:09;99965.13;;;13.04;59.51
7109;BME280;29079;41.930;25.558;2023-04-09T11:38:42;99948.06;;;12.96;59.21
7109;BME280;29079;41.930;25.558;2023-04-09T11:41:16;99931.00;;;13.06;61.98
7109;BME280;29079;41.930;25.558;2023-04-09T11:43:50;99938.59;;;13.21;58.70
7109;BME280;29079;41.930;25.558;2023-04-09T11:46:25;99921.34;;;13.43;58.15
7109;BME280;29079;41.930;25.558;2023-04-09T11:48:58;99931.38;;;13.31;57.74
7109;BME280;29079;41.930;25.558;2023-04-09T11:51:31;99936.50;;;13.15;58.42
7109;BME280;29079;41.930;25.558;2023-04-09T11:54:06;99929.03;;;12.89;58.71
7109;BME280;29079;41.930;25.558;2023-04-09T11:56:39;99926.34;;;12.79;58.63
7109;BME280;29079;41.930;25.558;2023-04-09T11:59:13;99921.84;;;12.99;59.28
7109;BME280;29079;41.930;25.558;2023-04-09T12:01:49;99924.09;;;12.94;59.12
7109;BME280;29079;41.930;25.558;2023-04-09T12:04:22;99919.00;;;13.11;57.78
7109;BME280;29079;41.930;25.558;2023-04-09T12:06:56;99919.72;;;13.03;57.93
7109;BME280;29079;41.930;25.558;2023-04-09T12:09:30;99915.59;;;13.28;58.79
7109;BME280;29079;41.930;25.558;2023-04-09T12:12:06;99902.91;;;13.30;57.72
7109;BME280;29079;41.930;25.558;2023-04-09T12:14:44;99906.22;;;13.52;57.69
7109;BME280;29079;41.930;25.558;2023-04-09T12:17:20;99900.72;;;13.53;56.57
7109;BME280;29079;41.930;25.558;2023-04-09T12:19:53;99886.78;;;13.50;55.01
7109;BME280;29079;41.930;25.558;2023-04-09T12:22:27;99892.88;;;13.22;55.79
7109;BME280;29079;41.930;25.558;2023-04-09T12:25:00;99894.34;;;12.97;56.52
7109;BME280;29079;41.930;25.558;2023-04-09T12:27:33;99884.41;;;13.47;56.47
7109;BME280;29079;41.930;25.558;2023-04-09T12:30:07;99881.09;;;13.63;57.04
7109;BME280;29079;41.930;25.558;2023-04-09T12:32:44;99885.69;;;13.43;55.91
7109;BME280;29079;41.930;25.558;2023-04-09T12:35:17;99881.47;;;13.30;55.13
7109;BME280;29079;41.930;25.558;2023-04-09T12:37:50;99879.03;;;13.47;56.42
7109;BME280;29079;41.930;25.558;2023-04-09T12:40:24;99868.78;;;13.22;55.71
7109;BME280;29079;41.930;25.558;2023-04-09T12:42:57;99864.22;;;13.43;55.90
7109;BME280;29079;41.930;25.558;2023-04-09T12:45:30;99870.56;;;13.41;56.09
7109;BME280;29079;41.930;25.558;2023-04-09T12:48:05;99864.66;;;13.28;55.64
7109;BME280;29079;41.930;25.558;2023-04-09T12:50:38;99856.50;;;13.20;58.28
7109;BME280;29079;41.930;25.558;2023-04-09T12:53:11;99858.03;;;13.42;56.25
7109;BME280;29079;41.930;25.558;2023-04-09T12:55:44;99857.72;;;13.55;54.80
7109;BME280;29079;41.930;25.558;2023-04-09T12:58:18;99862.06;;;13.56;54.93
7109;BME280;29079;41.930;25.558;2023-04-09T13:00:51;99862.06;;;13.56;53.83
7109;BME280;29079;41.930;25.558;2023-04-09T13:03:26;99855.97;;;13.64;53.74
7109;BME280;29079;41.930;25.558;2023-04-09T13:05:59;99850.25;;;13.76;58.11
7109;BME280;29079;41.930;25.558;2023-04-09T13:08:33;99845.38;;;13.62;54.38
7109;BME280;29079;41.930;25.558;2023-04-09T13:11:06;99852.72;;;13.60;54.18
7109;BME280;29079;41.930;25.558;2023-04-09T13:13:41;99847.03;;;13.73;56.41
7109;BME280;29079;41.930;25.558;2023-04-09T13:16:14;99849.97;;;13.80;53.82
7109;BME280;29079;41.930;25.558;2023-04-09T13:18:49;99841.03;;;13.61;55.02
7109;BME280;29079;41.930;25.558;2023-04-09T13:21:22;99834.09;;;13.58;53.02
7109;BME280;29079;41.930;25.558;2023-04-09T13:23:57;99832.06;;;13.70;52.79
7109;BME280;29079;41.930;25.558;2023-04-09T13:26:30;99829.28;;;13.90;58.24
7109;BME280;29079;41.930;25.558;2023-04-09T13:29:03;99830.38;;;13.97;56.65
7109;BME280;29079;41.930;25.558;2023-04-09T13:31:37;99824.72;;;14.00;55.09
7109;BME280;29079;41.930;25.558;2023-04-09T13:34:11;99828.63;;;14.06;52.57